createdAt,value
2023-02-13T00:00:22.980Z,58.51
2023-02-13T00:02:50.029Z,58.60
2023-02-13T00:05:16.936Z,58.66
2023-02-13T00:07:43.682Z,58.68
2023-02-13T00:10:10.811Z,58.97
2023-02-13T00:12:37.396Z,58.74
2023-02-13T00:15:05.014Z,58.85
2023-02-13T00:17:32.253Z,58.91
2023-02-13T00:19:59.255Z,58.84
2023-02-13T00:22:26.332Z,58.98
2023-02-13T00:24:52.984Z,59.00
2023-02-13T00:27:19.659Z,58.94
2023-02-13T00:29:46.959Z,58.84
2023-02-13T00:32:14.662Z,59.06
2023-02-13T00:34:41.726Z,59.24
2023-02-13T00:37:08.380Z,59.36
2023-02-13T00:39:35.212Z,59.13
2023-02-13T00:42:01.812Z,59.21
2023-02-13T00:44:28.899Z,59.19
2023-02-13T00:46:55.702Z,59.34
2023-02-13T00:49:23.660Z,59.17
2023-02-13T00:51:50.342Z,59.44
2023-02-13T00:54:17.037Z,59.35
2023-02-13T00:56:44.100Z,59.42
2023-02-13T00:59:13.162Z,59.44
2023-02-13T01:01:39.846Z,59.31
2023-02-13T01:04:06.584Z,59.28
2023-02-13T01:06:33.303Z,59.38
2023-02-13T01:09:00.010Z,59.29
2023-02-13T01:11:26.683Z,59.16
2023-02-13T01:13:53.340Z,59.24
2023-02-13T01:16:20.645Z,59.41
2023-02-13T01:18:47.689Z,59.40
2023-02-13T01:21:20.981Z,59.54
2023-02-13T01:23:47.700Z,59.32
2023-02-13T01:26:20.321Z,59.46
2023-02-13T01:28:52.717Z,59.39
2023-02-13T01:31:19.688Z,59.43
2023-02-13T01:33:46.610Z,59.56
2023-02-13T01:36:14.322Z,59.42
2023-02-13T01:38:41.806Z,59.21
2023-02-13T01:41:09.679Z,59.37
2023-02-13T01:43:46.890Z,59.60
2023-02-13T01:46:18.815Z,59.67
2023-02-13T01:48:47.096Z,59.67
2023-02-13T01:51:20.156Z,59.68
2023-02-13T01:53:53.634Z,59.59
2023-02-13T01:56:29.888Z,59.61
2023-02-13T01:59:01.966Z,59.58
2023-02-13T02:01:31.705Z,59.65
2023-02-13T02:04:09.204Z,59.72
2023-02-13T02:06:46.812Z,59.70
2023-02-13T02:09:25.904Z,59.77
2023-02-13T02:12:24.999Z,59.63
2023-02-13T02:14:54.173Z,59.92
2023-02-13T02:17:24.593Z,59.59
2023-02-13T02:20:02.969Z,59.71
2023-02-13T02:22:45.237Z,59.93
2023-02-13T02:25:34.532Z,59.61
2023-02-13T02:28:21.078Z,59.86
2023-02-13T02:31:24.698Z,59.75
2023-02-13T02:34:14.526Z,59.53
2023-02-13T02:36:55.743Z,59.72
2023-02-13T02:39:57.548Z,59.85
2023-02-13T02:42:36.856Z,59.81
2023-02-13T02:45:29.248Z,59.87
2023-02-13T02:48:53.640Z,59.87
2023-02-13T02:51:35.841Z,59.89
2023-02-13T02:54:48.066Z,59.80
2023-02-13T02:57:24.998Z,60.21
2023-02-13T03:00:17.156Z,59.93
2023-02-13T03:03:22.700Z,59.94
2023-02-13T03:15:17.086Z,60.15
2023-02-13T03:21:15.000Z,60.01
2023-02-13T03:24:04.669Z,59.88
2023-02-13T03:33:06.137Z,60.14
2023-02-13T03:36:01.132Z,60.36
2023-02-13T03:38:36.003Z,60.23
2023-02-13T03:41:20.145Z,60.34
2023-02-13T03:43:58.261Z,60.31
2023-02-13T03:46:27.409Z,60.23
2023-02-13T03:49:15.271Z,60.28
2023-02-13T03:51:59.301Z,60.32
2023-02-13T03:55:05.794Z,60.12
2023-02-13T03:57:54.877Z,60.40
2023-02-13T04:00:22.289Z,60.42
2023-02-13T04:03:05.927Z,60.37
2023-02-13T04:05:40.550Z,60.23
2023-02-13T04:08:07.291Z,60.28
2023-02-13T04:10:37.980Z,60.47
2023-02-13T04:13:15.946Z,60.35
2023-02-13T04:15:50.095Z,60.40
2023-02-13T04:18:27.631Z,60.37
2023-02-13T04:20:54.635Z,60.28
2023-02-13T04:23:21.377Z,60.12
2023-02-13T04:25:52.091Z,60.46
2023-02-13T04:28:18.905Z,60.63
2023-02-13T04:30:45.951Z,60.47
2023-02-13T04:33:12.785Z,60.47
2023-02-13T04:35:39.538Z,60.54
2023-02-13T04:38:06.243Z,60.50
2023-02-13T04:40:33.168Z,60.49
2023-02-13T04:43:00.456Z,60.22
2023-02-13T04:45:27.334Z,60.45
2023-02-13T04:47:55.951Z,60.56
2023-02-13T04:50:23.567Z,60.63
2023-02-13T04:52:57.618Z,60.68
2023-02-13T04:55:26.355Z,60.52
2023-02-13T04:57:54.496Z,60.45
2023-02-13T05:00:22.754Z,60.42
2023-02-13T05:02:49.738Z,60.72
2023-02-13T05:05:16.497Z,60.60
2023-02-13T05:07:43.460Z,60.63
2023-02-13T05:10:11.434Z,60.59
2023-02-13T05:12:38.202Z,60.73
2023-02-13T05:15:06.135Z,60.57
2023-02-13T05:17:32.991Z,60.59
2023-02-13T05:20:00.095Z,60.47
2023-02-13T05:22:45.148Z,60.51
2023-02-13T05:25:11.880Z,60.56
2023-02-13T05:27:38.639Z,60.57
2023-02-13T05:30:06.145Z,60.41
2023-02-13T05:32:32.790Z,60.51
2023-02-13T05:34:59.523Z,60.53
2023-02-13T05:37:26.235Z,60.48
2023-02-13T05:39:52.834Z,60.53
2023-02-13T05:42:19.393Z,60.60
2023-02-13T05:44:46.223Z,60.50
2023-02-13T05:47:12.993Z,60.48
2023-02-13T05:49:39.667Z,60.72
2023-02-13T05:52:06.501Z,60.84
2023-02-13T05:54:33.364Z,60.72
2023-02-13T05:57:00.218Z,60.87
2023-02-13T05:59:27.023Z,60.72
2023-02-13T06:01:54.648Z,60.41
2023-02-13T06:04:21.298Z,60.66
2023-02-13T06:06:47.961Z,60.85
2023-02-13T06:09:14.636Z,60.85
2023-02-13T06:11:41.470Z,60.85
2023-02-13T06:14:08.129Z,60.81
2023-02-13T06:16:34.786Z,60.79
2023-02-13T06:19:01.430Z,60.73
2023-02-13T06:21:28.106Z,60.76
2023-02-13T06:23:54.768Z,60.84
2023-02-13T06:26:21.562Z,60.71
2023-02-13T06:28:48.327Z,60.84
2023-02-13T06:31:15.386Z,60.85
2023-02-13T06:33:42.378Z,60.65
2023-02-13T06:36:09.127Z,60.58
2023-02-13T06:38:35.803Z,60.09
2023-02-13T06:41:03.015Z,60.74
2023-02-13T06:43:29.911Z,60.74
2023-02-13T06:45:56.643Z,60.97
2023-02-13T06:48:23.346Z,61.05
2023-02-13T06:50:52.148Z,60.86
2023-02-13T06:53:24.683Z,60.93
2023-02-13T06:55:53.416Z,60.86
2023-02-13T06:58:21.628Z,61.19
2023-02-13T07:00:48.658Z,60.95
2023-02-13T07:03:15.389Z,61.11
2023-02-13T07:05:43.536Z,60.87
2023-02-13T07:08:11.697Z,60.89
2023-02-13T07:10:39.633Z,61.11
2023-02-13T07:13:06.914Z,61.12
2023-02-13T07:15:34.872Z,60.94
2023-02-13T07:18:01.949Z,61.11
2023-02-13T07:20:29.202Z,60.98
2023-02-13T07:23:02.910Z,61.11
2023-02-13T07:25:30.024Z,60.94
2023-02-13T07:28:05.578Z,61.08
2023-02-13T07:30:33.830Z,60.96
2023-02-13T07:33:02.375Z,60.95
2023-02-13T07:35:29.637Z,61.02
2023-02-13T07:37:56.363Z,60.92
2023-02-13T07:40:23.088Z,61.02
2023-02-13T07:42:49.721Z,60.95
2023-02-13T07:45:16.620Z,60.97
2023-02-13T07:47:43.689Z,60.88
2023-02-13T07:50:10.804Z,60.92
2023-02-13T07:52:38.155Z,60.92
2023-02-13T07:55:06.040Z,60.56
2023-02-13T07:57:33.584Z,60.75
2023-02-13T08:00:00.511Z,60.58
2023-02-13T08:02:27.285Z,60.32
2023-02-13T08:04:53.949Z,60.24
2023-02-13T08:07:20.553Z,60.31
2023-02-13T08:10:06.161Z,60.16
2023-02-13T08:12:35.767Z,60.15
2023-02-13T08:15:02.754Z,60.08
2023-02-13T08:17:29.381Z,59.51
2023-02-13T08:19:56.259Z,59.24
2023-02-13T08:22:23.129Z,58.82
2023-02-13T08:24:49.909Z,58.69
2023-02-13T08:27:16.733Z,58.32
2023-02-13T08:29:43.683Z,58.09
2023-02-13T08:32:10.595Z,58.19
2023-02-13T08:34:37.524Z,57.84
2023-02-13T08:37:04.348Z,57.69
2023-02-13T08:39:31.169Z,57.68
2023-02-13T08:41:58.035Z,57.55
2023-02-13T08:44:25.031Z,57.50
2023-02-13T08:46:51.652Z,57.17
2023-02-13T08:49:18.422Z,57.36
2023-02-13T08:51:45.277Z,57.22
2023-02-13T08:54:12.071Z,57.11
2023-02-13T08:56:38.855Z,56.98
2023-02-13T08:59:05.580Z,56.92
2023-02-13T09:01:32.461Z,57.19
2023-02-13T09:03:59.400Z,57.55
2023-02-13T09:06:27.606Z,57.38
2023-02-13T09:08:54.955Z,57.00
2023-02-13T09:11:23.545Z,57.08
2023-02-13T09:13:53.516Z,56.78
2023-02-13T09:16:20.921Z,56.58
2023-02-13T09:18:48.965Z,56.76
2023-02-13T09:21:16.187Z,56.61
2023-02-13T09:23:43.154Z,56.41
2023-02-13T09:26:12.731Z,56.28
2023-02-13T09:28:40.255Z,56.13
2023-02-13T09:31:08.854Z,56.17
2023-02-13T09:33:36.010Z,56.04
2023-02-13T09:36:13.765Z,55.84
2023-02-13T09:38:44.780Z,55.77
2023-02-13T09:41:17.340Z,55.55
2023-02-13T09:43:49.816Z,55.97
2023-02-13T09:46:24.352Z,55.69
2023-02-13T09:48:54.769Z,55.51
2023-02-13T09:51:25.701Z,55.45
2023-02-13T09:53:56.870Z,55.52
2023-02-13T09:56:40.312Z,55.32
2023-02-13T09:59:43.320Z,55.58
2023-02-13T10:02:37.845Z,55.41
2023-02-13T10:05:17.830Z,55.23
2023-02-13T10:08:04.123Z,55.45
2023-02-13T10:10:56.167Z,55.41
2023-02-13T10:13:53.443Z,55.55
2023-02-13T10:16:24.120Z,55.51
2023-02-13T10:19:02.993Z,55.54
2023-02-13T10:21:36.885Z,55.45
2023-02-13T10:24:14.697Z,55.37
2023-02-13T10:26:45.660Z,54.95
2023-02-13T10:29:38.243Z,55.16
2023-02-13T10:32:09.523Z,54.99
2023-02-13T10:34:45.456Z,55.09
2023-02-13T10:37:20.900Z,55.04
2023-02-13T10:39:53.378Z,54.82
2023-02-13T10:42:58.486Z,55.00
2023-02-13T10:46:04.312Z,55.09
2023-02-13T10:48:57.311Z,54.78
2023-02-13T10:51:35.855Z,54.83
2023-02-13T11:25:21.508Z,55.38
2023-02-13T11:27:50.753Z,54.83
2023-02-13T11:30:23.188Z,54.75
2023-02-13T11:33:18.353Z,54.47
2023-02-13T11:35:46.794Z,54.41
2023-02-13T11:38:16.439Z,54.37
2023-02-13T11:40:46.081Z,54.36
2023-02-13T11:43:47.685Z,54.16
2023-02-13T11:46:18.396Z,54.16
2023-02-13T11:49:06.451Z,54.26
2023-02-13T11:51:47.042Z,54.10
2023-02-13T11:54:25.820Z,54.18
2023-02-13T11:57:10.592Z,54.30
2023-02-13T11:59:42.906Z,54.19
2023-02-13T12:02:27.892Z,54.31
2023-02-13T12:05:15.008Z,54.10
2023-02-13T12:07:42.951Z,54.03
2023-02-13T12:10:15.349Z,54.29
2023-02-13T12:12:47.380Z,54.06
2023-02-13T12:15:25.412Z,54.10
2023-02-13T12:18:18.230Z,54.02
2023-02-13T12:21:03.115Z,54.20
2023-02-13T12:23:48.411Z,53.82
2023-02-13T12:26:31.189Z,54.04
2023-02-13T12:29:19.330Z,53.96
2023-02-13T12:32:08.155Z,53.91
2023-02-13T12:35:00.100Z,54.05
2023-02-13T12:37:37.164Z,53.83
2023-02-13T12:40:24.694Z,53.92
2023-02-13T12:43:05.221Z,54.01
2023-02-13T12:46:08.301Z,53.85
2023-02-13T12:48:48.193Z,53.77
2023-02-13T12:51:39.662Z,54.01
2023-02-13T12:54:36.034Z,53.86
2023-02-13T12:57:30.451Z,53.78
2023-02-13T13:00:15.582Z,53.88
2023-02-13T13:03:18.984Z,53.86
2023-02-13T13:06:13.259Z,53.75
2023-02-13T13:08:46.035Z,53.96
2023-02-13T13:11:37.359Z,53.76
2023-02-13T13:14:21.072Z,53.91
2023-02-13T13:17:05.347Z,53.64
2023-02-13T13:19:59.209Z,53.62
2023-02-13T13:22:39.999Z,53.48
2023-02-13T13:25:15.728Z,53.35
2023-02-13T13:27:53.343Z,53.38
2023-02-13T13:30:27.362Z,53.38
2023-02-13T13:33:02.819Z,53.30
2023-02-13T13:35:30.691Z,53.30
2023-02-13T13:38:15.052Z,53.35
2023-02-13T13:41:06.949Z,53.18
2023-02-13T13:43:48.409Z,53.06
2023-02-13T13:46:31.459Z,53.10
2023-02-13T13:49:19.875Z,53.20
2023-02-13T13:51:46.692Z,52.86
2023-02-13T13:54:13.538Z,52.74
2023-02-13T13:57:02.142Z,52.83
2023-02-13T13:59:38.221Z,52.65
2023-02-13T14:02:17.325Z,52.69
2023-02-13T14:05:18.538Z,52.72
2023-02-13T14:07:48.384Z,52.72
2023-02-13T14:10:20.826Z,52.80
2023-02-13T14:13:02.576Z,52.57
2023-02-13T14:15:38.252Z,52.49
2023-02-13T14:18:21.072Z,52.43
2023-02-13T14:20:53.876Z,52.38
2023-02-13T14:24:03.975Z,52.29
2023-02-13T14:26:37.045Z,52.13
2023-02-13T14:29:30.614Z,52.14
2023-02-13T14:32:04.929Z,52.25
2023-02-13T14:34:37.124Z,52.38
2023-02-13T14:37:20.892Z,52.39
2023-02-13T14:40:15.502Z,52.23
2023-02-13T14:42:46.084Z,52.15
2023-02-13T14:45:44.313Z,52.43
2023-02-13T14:48:14.944Z,52.29
2023-02-13T14:50:45.763Z,52.41
2023-02-13T14:53:47.697Z,52.27
2023-02-13T14:56:18.954Z,52.42
2023-02-13T14:59:03.777Z,52.30
2023-02-13T15:01:35.029Z,52.29
2023-02-13T15:04:22.724Z,52.31
2023-02-13T15:06:50.669Z,52.25
2023-02-13T15:09:39.576Z,52.34
2023-02-13T15:12:28.385Z,52.47
2023-02-13T15:14:55.056Z,52.45
2023-02-13T15:17:32.776Z,52.59
2023-02-13T15:20:12.262Z,52.34
2023-02-13T15:22:45.237Z,52.45
2023-02-13T15:25:36.015Z,52.43
2023-02-13T15:28:05.101Z,52.64
2023-02-13T15:30:36.274Z,52.61
2023-02-13T15:33:05.207Z,52.72
2023-02-13T15:35:38.944Z,52.84
2023-02-13T15:38:27.975Z,52.86
2023-02-13T15:41:03.143Z,53.00
2023-02-13T15:43:40.310Z,53.01
2023-02-13T15:46:20.385Z,52.91
2023-02-13T15:48:48.033Z,53.01
2023-02-13T15:51:26.978Z,53.05
2023-02-13T15:53:56.576Z,53.06
2023-02-13T15:56:23.765Z,53.12
2023-02-13T15:58:51.667Z,53.29
2023-02-13T16:01:18.646Z,53.17
2023-02-13T16:03:48.543Z,53.03
2023-02-13T16:06:17.062Z,53.20
2023-02-13T16:08:55.391Z,53.20
2023-02-13T16:11:25.221Z,53.42
2023-02-13T16:13:51.864Z,53.34
2023-02-13T16:16:18.718Z,53.70
2023-02-13T16:18:45.682Z,53.62
2023-02-13T16:21:12.561Z,53.26
2023-02-13T16:23:39.384Z,52.89
2023-02-13T16:26:12.831Z,53.04
2023-02-13T16:28:39.576Z,53.36
2023-02-13T16:31:06.558Z,53.31
2023-02-13T16:33:36.291Z,53.33
2023-02-13T16:36:08.816Z,53.55
2023-02-13T16:38:38.305Z,53.47
2023-02-13T16:41:23.274Z,53.35
2023-02-13T16:44:00.382Z,53.41
2023-02-13T16:46:32.064Z,53.40
2023-02-13T16:49:01.622Z,53.33
2023-02-13T16:52:05.542Z,53.24
2023-02-13T16:54:41.362Z,53.28
2023-02-13T16:57:13.852Z,53.25
2023-02-13T16:59:49.987Z,53.41
2023-02-13T17:02:25.633Z,53.51
2023-02-13T17:04:56.580Z,53.25
2023-02-13T17:07:24.783Z,53.14
2023-02-13T17:10:21.849Z,53.34
2023-02-13T17:12:50.287Z,53.09
2023-02-13T17:15:20.922Z,52.66
2023-02-13T17:17:48.077Z,53.13
2023-02-13T17:20:19.924Z,52.95
2023-02-13T17:22:48.944Z,52.92
2023-02-13T17:25:23.292Z,52.97
2023-02-13T17:27:52.986Z,53.05
2023-02-13T17:30:22.982Z,53.17
2023-02-13T17:32:53.883Z,53.18
2023-02-13T17:35:20.664Z,53.25
2023-02-13T17:37:47.356Z,53.08
2023-02-13T17:40:18.857Z,53.16
2023-02-13T17:42:47.687Z,53.34
2023-02-13T17:45:17.230Z,53.45
2023-02-13T17:47:43.879Z,53.28
2023-02-13T17:50:12.302Z,53.42
2023-02-13T17:52:40.405Z,53.35
2023-02-13T17:55:16.874Z,53.44
2023-02-13T17:57:44.157Z,53.52
2023-02-13T18:00:11.218Z,53.63
2023-02-13T18:02:42.676Z,53.48
2023-02-13T18:05:10.501Z,53.58
2023-02-13T18:07:39.448Z,53.54
2023-02-13T18:10:13.465Z,53.30
2023-02-13T18:12:40.747Z,53.48
2023-02-13T18:15:08.155Z,53.28
2023-02-13T18:17:34.790Z,53.34
2023-02-13T18:20:01.681Z,53.26
2023-02-13T18:22:29.238Z,53.47
2023-02-13T18:24:55.924Z,53.38
2023-02-13T18:27:23.678Z,53.46
2023-02-13T18:29:50.638Z,53.86
2023-02-13T18:32:17.487Z,53.36
2023-02-13T18:34:46.557Z,53.34
2023-02-13T18:37:14.224Z,53.04
2023-02-13T18:39:41.119Z,53.39
2023-02-13T18:42:07.795Z,53.35
2023-02-13T18:44:34.847Z,53.29
2023-02-13T18:47:01.669Z,53.53
2023-02-13T18:49:28.603Z,53.11
2023-02-13T18:51:55.258Z,53.30
2023-02-13T18:54:22.004Z,53.37
2023-02-13T18:56:49.122Z,53.32
2023-02-13T18:59:16.293Z,53.49
2023-02-13T19:01:43.104Z,53.46
2023-02-13T19:04:10.199Z,53.24
2023-02-13T19:06:40.404Z,53.34
2023-02-13T19:09:19.427Z,53.34
2023-02-13T19:11:49.016Z,53.24
2023-02-13T19:14:15.791Z,53.14
2023-02-13T19:16:42.895Z,53.27
2023-02-13T19:19:09.570Z,53.21
2023-02-13T19:21:38.309Z,53.37
2023-02-13T19:24:08.615Z,53.07
2023-02-13T19:26:36.088Z,53.05
2023-02-13T19:29:03.731Z,53.21
2023-02-13T19:31:32.047Z,53.32
2023-02-13T19:34:02.357Z,53.23
2023-02-13T19:36:30.220Z,53.34
2023-02-13T19:39:03.756Z,53.25
2023-02-13T19:41:31.330Z,53.16
2023-02-13T19:43:58.522Z,53.12
2023-02-13T19:46:28.282Z,52.76
2023-02-13T19:48:55.172Z,53.09
2023-02-13T19:51:28.124Z,53.03
2023-02-13T19:53:56.916Z,53.10
2023-02-13T19:56:24.410Z,53.01
2023-02-13T19:58:51.357Z,53.16
2023-02-13T20:01:23.244Z,52.72
2023-02-13T20:03:50.239Z,52.63
2023-02-13T20:06:23.094Z,52.21
2023-02-13T20:08:50.537Z,52.12
2023-02-13T20:11:19.425Z,52.59
2023-02-13T20:13:46.215Z,52.96
2023-02-13T20:16:16.795Z,52.95
2023-02-13T20:18:43.680Z,53.44
2023-02-13T20:21:13.641Z,53.48
2023-02-13T20:23:41.679Z,53.83
2023-02-13T20:26:16.629Z,53.74
2023-02-13T20:28:45.311Z,54.04
2023-02-13T20:31:14.859Z,53.94
2023-02-13T20:33:41.993Z,54.09
2023-02-13T20:36:18.856Z,53.95
2023-02-13T20:38:45.763Z,53.82
2023-02-13T20:41:15.606Z,53.61
2023-02-13T20:43:43.319Z,53.94
2023-02-13T20:46:10.673Z,53.90
2023-02-13T20:48:41.232Z,54.21
2023-02-13T20:51:11.526Z,54.22
2023-02-13T20:53:39.470Z,54.50
2023-02-13T20:56:07.648Z,54.10
2023-02-13T20:58:34.601Z,53.72
2023-02-13T21:01:01.872Z,54.08
2023-02-13T21:03:29.234Z,54.53
2023-02-13T21:05:56.076Z,54.64
2023-02-13T21:08:22.940Z,54.25
2023-02-13T21:10:49.685Z,54.67
2023-02-13T21:13:16.465Z,55.05
2023-02-13T21:15:48.106Z,55.26
2023-02-13T21:18:15.517Z,55.46
2023-02-13T21:20:42.436Z,55.59
2023-02-13T21:23:09.234Z,55.78
2023-02-13T21:25:36.069Z,55.93
2023-02-13T21:28:02.933Z,55.98
2023-02-13T21:30:29.695Z,55.87
2023-02-13T21:32:56.315Z,56.09
2023-02-13T21:35:22.916Z,56.08
2023-02-13T21:37:49.481Z,56.33
2023-02-13T21:40:16.942Z,56.56
2023-02-13T21:42:43.721Z,56.45
2023-02-13T21:45:11.891Z,56.56
2023-02-13T21:47:38.576Z,56.75
2023-02-13T21:50:06.777Z,56.64
2023-02-13T21:52:35.442Z,56.56
2023-02-13T21:55:03.960Z,56.68
2023-02-13T21:57:30.783Z,56.88
2023-02-13T21:59:57.596Z,56.97
2023-02-13T22:02:27.002Z,56.92
2023-02-13T22:04:54.003Z,57.01
2023-02-13T22:07:20.871Z,57.08
2023-02-13T22:09:49.834Z,57.08
2023-02-13T22:12:16.609Z,57.17
2023-02-13T22:14:43.617Z,57.04
2023-02-13T22:17:10.368Z,57.25
2023-02-13T22:19:37.040Z,57.22
2023-02-13T22:22:04.004Z,57.41
2023-02-13T22:24:30.902Z,57.25
2023-02-13T22:26:57.805Z,57.31
2023-02-13T22:29:26.005Z,57.41
2023-02-13T22:31:53.112Z,57.54
2023-02-13T22:34:20.418Z,57.90
2023-02-13T22:36:46.995Z,58.07
2023-02-13T22:39:13.734Z,58.28
2023-02-13T22:41:41.066Z,58.18
2023-02-13T22:44:07.906Z,58.11
2023-02-13T22:46:37.007Z,58.39
2023-02-13T22:49:03.823Z,58.24
2023-02-13T22:51:34.237Z,57.97
2023-02-13T22:54:01.490Z,57.96
2023-02-13T22:56:29.740Z,58.26
2023-02-13T22:58:57.283Z,58.14
2023-02-13T23:01:26.272Z,58.11
2023-02-13T23:03:55.580Z,58.07
2023-02-13T23:06:22.451Z,58.25
2023-02-13T23:08:52.635Z,58.29
2023-02-13T23:11:40.446Z,58.30
2023-02-13T23:14:07.303Z,58.11
2023-02-13T23:16:53.910Z,58.60
2023-02-13T23:19:21.632Z,58.47
2023-02-13T23:21:48.417Z,58.56
2023-02-13T23:24:15.196Z,58.69
2023-02-13T23:26:41.896Z,58.69
2023-02-13T23:29:08.688Z,58.76
2023-02-13T23:31:35.436Z,58.77
2023-02-13T23:34:02.221Z,58.55
2023-02-13T23:36:28.991Z,58.90
2023-02-13T23:38:55.685Z,58.59
2023-02-13T23:41:22.389Z,58.86
2023-02-13T23:43:49.099Z,59.08
2023-02-13T23:46:16.014Z,58.95
2023-02-13T23:48:42.856Z,58.79
2023-02-13T23:51:09.729Z,58.96
2023-02-13T23:53:36.696Z,58.95
2023-02-13T23:56:04.597Z,59.01
2023-02-13T23:58:31.190Z,59.08
